Time;durP1;ratioP1;P1;durP2;ratioP2;P2;SDS_P1;SDS_P2;PMS_P1;PMS_P2;Temp;Humidity;BMP_temperature;BMP_pressure;BME280_temperature;BME280_humidity;BME280_pressure;Samples;Min_cycle;Max_cycle;Signal;HPM_P1;HPM_P2
2023/04/28 00:01:27;;;;;;;2.53;2.08;;;8.40;99.90;;;;;;5111653;28;20540;-46
2023/04/28 00:03:55;;;;;;;5.80;3.00;;;8.40;99.90;;;;;;5096500;28;20138;-46
2023/04/28 00:06:22;;;;;;;3.85;2.95;;;8.40;99.90;;;;;;5090940;28;20119;-47
2023/04/28 00:08:49;;;;;;;5.18;2.63;;;8.40;99.90;;;;;;5090296;28;20111;-46
2023/04/28 00:11:16;;;;;;;5.88;2.80;;;8.30;99.90;;;;;;5090841;28;20040;-46
2023/04/28 00:13:42;;;;;;;4.30;2.85;;;8.30;99.90;;;;;;5090047;28;20036;-46
2023/04/28 00:16:09;;;;;;;4.38;2.72;;;8.30;99.90;;;;;;5093092;28;20119;-48
2023/04/28 00:18:36;;;;;;;4.75;3.15;;;8.20;99.90;;;;;;5091155;28;20211;-46
2023/04/28 00:21:03;;;;;;;4.63;2.70;;;8.20;99.90;;;;;;5090849;28;20097;-48
2023/04/28 00:23:30;;;;;;;5.18;2.38;;;8.20;99.90;;;;;;5090372;28;20075;-46
2023/04/28 00:25:56;;;;;;;5.53;2.53;;;8.10;99.90;;;;;;5090771;28;20064;-47
2023/04/28 00:28:23;;;;;;;4.63;2.13;;;8.10;99.90;;;;;;5092674;28;20389;-47
2023/04/28 00:30:53;;;;;;;4.55;2.70;;;8.10;99.90;;;;;;5090821;28;20438;-46
2023/04/28 00:33:20;;;;;;;4.60;2.88;;;8.00;99.90;;;;;;5089822;28;20044;-46
2023/04/28 00:35:46;;;;;;;4.28;2.45;;;8.00;99.90;;;;;;5072307;28;20036;-47
2023/04/28 00:38:13;;;;;;;4.80;2.60;;;8.00;99.90;;;;;;5090185;28;20040;-48
2023/04/28 00:40:40;;;;;;;5.80;2.80;;;8.00;99.90;;;;;;5072336;28;20059;-47
2023/04/28 00:43:07;;;;;;;3.65;2.45;;;8.00;99.90;;;;;;5072171;28;20532;-46
2023/04/28 00:45:33;;;;;;;5.50;1.80;;;8.00;99.90;;;;;;5090240;28;20089;-47
2023/04/28 00:48:01;;;;;;;7.10;2.35;;;8.00;99.90;;;;;;5072158;28;20123;-47
2023/04/28 00:50:28;;;;;;;4.10;2.50;;;8.00;99.90;;;;;;5089372;28;20032;-46
2023/04/28 00:52:54;;;;;;;3.47;2.30;;;7.90;99.90;;;;;;5071216;28;20381;-48
2023/04/28 00:55:23;;;;;;;3.00;2.15;;;7.90;99.90;;;;;;5073113;28;20496;-47
2023/04/28 00:57:50;;;;;;;3.28;2.28;;;7.90;99.90;;;;;;5072425;28;20051;-46
2023/04/28 01:00:17;;;;;;;3.70;2.80;;;7.90;99.90;;;;;;5073583;28;20071;-47
2023/04/28 01:02:44;;;;;;;4.40;2.38;;;7.80;99.90;;;;;;5082939;28;20179;-47
2023/04/28 01:05:12;;;;;;;3.10;2.28;;;7.80;99.90;;;;;;5095794;28;20047;-47
2023/04/28 01:07:39;;;;;;;6.70;2.13;;;7.80;99.90;;;;;;5095269;28;20036;-46
2023/04/28 01:10:08;;;;;;;4.72;2.20;;;7.80;99.90;;;;;;5079188;28;20075;-46
2023/04/28 01:12:34;;;;;;;;;;;7.80;99.90;;;;;;5095938;28;20043;-46
2023/04/28 01:15:02;;;;;;;3.35;2.50;;;7.80;99.90;;;;;;5096597;28;20341;-49
2023/04/28 01:17:30;;;;;;;4.60;2.47;;;7.80;99.90;;;;;;5095665;28;20093;-46
2023/04/28 01:19:58;;;;;;;3.60;2.38;;;7.90;99.90;;;;;;5095560;28;20727;-47
2023/04/28 01:22:25;;;;;;;4.25;2.55;;;7.90;99.90;;;;;;5095941;28;20043;-47
2023/04/28 01:24:51;;;;;;;5.15;2.72;;;7.90;99.90;;;;;;5087873;28;20055;-46
2023/04/28 01:27:18;;;;;;;8.23;2.83;;;7.90;99.90;;;;;;5083766;28;20656;-46
2023/04/28 01:29:45;;;;;;;4.13;2.05;;;7.90;99.90;;;;;;5093468;28;20061;-46
2023/04/28 01:32:12;;;;;;;4.28;2.35;;;7.90;99.90;;;;;;5079160;28;20048;-46
2023/04/28 01:34:39;;;;;;;4.68;2.42;;;7.90;99.90;;;;;;5087197;28;20508;-46
2023/04/28 01:37:05;;;;;;;3.70;2.25;;;7.90;99.90;;;;;;5075682;28;20046;-48
2023/04/28 01:39:33;;;;;;;4.40;2.10;;;7.90;99.90;;;;;;5079708;28;20044;-47
2023/04/28 01:42:02;;;;;;;4.18;2.03;;;7.90;99.90;;;;;;5075568;28;20043;-47
2023/04/28 01:44:29;;;;;;;5.35;1.65;;;7.90;99.90;;;;;;5074327;28;20074;-47
2023/04/28 01:46:55;;;;;;;4.97;1.55;;;7.90;99.90;;;;;;5075994;28;20052;-46
2023/04/28 01:49:22;;;;;;;3.97;1.70;;;7.80;99.90;;;;;;5093972;28;20063;-47
2023/04/28 01:51:49;;;;;;;3.65;2.05;;;7.70;99.90;;;;;;5096038;28;20039;-46
2023/04/28 01:54:16;;;;;;;3.60;1.92;;;7.70;99.90;;;;;;5090245;28;20062;-46
2023/04/28 01:56:43;;;;;;;3.95;1.85;;;7.60;99.90;;;;;;5082584;28;20032;-46
2023/04/28 01:59:13;;;;;;;3.17;1.65;;;7.60;99.90;;;;;;5082266;28;20036;-46
2023/04/28 02:01:40;;;;;;;4.57;2.20;;;7.70;99.90;;;;;;5093318;28;20382;-48
2023/04/28 02:04:06;;;;;;;7.75;2.47;;;7.70;99.90;;;;;;5074957;28;20434;-47
2023/04/28 02:06:35;;;;;;;5.30;2.30;;;7.80;99.90;;;;;;5075292;28;20043;-48
2023/04/28 02:09:02;;;;;;;3.80;2.10;;;7.80;99.90;;;;;;5073807;28;20064;-46
2023/04/28 02:11:29;;;;;;;4.03;2.47;;;7.80;99.90;;;;;;5092559;28;20089;-46
2023/04/28 02:13:56;;;;;;;3.97;2.85;;;7.80;99.90;;;;;;5073869;28;20047;-46
2023/04/28 02:16:22;;;;;;;3.65;2.22;;;7.80;99.90;;;;;;5079009;28;20085;-47
2023/04/28 02:18:49;;;;;;;2.95;2.33;;;7.90;99.90;;;;;;5078115;28;20063;-46
2023/04/28 02:21:16;;;;;;;4.47;2.35;;;8.00;99.90;;;;;;5109322;28;20109;-47
2023/04/28 02:23:44;;;;;;;3.38;2.13;;;8.10;99.90;;;;;;5093056;28;20060;-46
2023/04/28 02:26:11;;;;;;;4.72;2.17;;;8.10;99.90;;;;;;5073108;28;20056;-47
2023/04/28 02:28:38;;;;;;;5.07;2.28;;;8.10;99.90;;;;;;5079543;28;20160;-47
2023/04/28 02:31:09;;;;;;;4.28;2.47;;;8.20;99.90;;;;;;5092234;28;20077;-46
2023/04/28 02:33:37;;;;;;;3.00;2.10;;;8.20;99.90;;;;;;5092785;28;20032;-47
2023/04/28 02:36:04;;;;;;;;;;;8.10;99.90;;;;;;5092791;28;20400;-47
2023/04/28 02:38:31;;;;;;;2.78;1.98;;;8.10;99.90;;;;;;5077075;28;19977;-46
2023/04/28 02:41:07;;;;;;;2.72;2.05;;;8.10;99.90;;;;;;5073868;28;20059;-46
2023/04/28 02:43:36;;;;;;;3.38;2.30;;;8.10;99.90;;;;;;5075864;28;20069;-47
2023/04/28 02:46:03;;;;;;;3.55;2.35;;;8.10;99.90;;;;;;5074080;28;20048;-47
2023/04/28 02:48:31;;;;;;;3.10;2.10;;;8.10;99.90;;;;;;5073226;28;20044;-46
2023/04/28 02:50:57;;;;;;;5.20;2.50;;;8.10;99.90;;;;;;5092472;28;20040;-48
2023/04/28 02:53:24;;;;;;;2.78;1.77;;;8.00;99.90;;;;;;5089722;28;20032;-46
2023/04/28 02:55:51;;;;;;;5.10;2.15;;;8.00;99.90;;;;;;5087113;28;20039;-47
2023/04/28 02:58:18;;;;;;;3.08;2.13;;;8.00;99.90;;;;;;5103872;28;20047;-46
2023/04/28 03:00:46;;;;;;;4.68;2.50;;;8.00;99.90;;;;;;5094204;28;20559;-46
2023/04/28 03:03:13;;;;;;;5.80;2.88;;;8.10;99.90;;;;;;5094602;28;20062;-46
2023/04/28 03:05:40;;;;;;;4.25;2.40;;;8.10;99.90;;;;;;5088833;28;20402;-47
2023/04/28 03:08:07;;;;;;;6.32;2.45;;;8.20;99.90;;;;;;5093945;28;20044;-48
2023/04/28 03:10:34;;;;;;;3.97;2.53;;;8.20;99.90;;;;;;5093859;28;20109;-47
2023/04/28 03:13:02;;;;;;;6.38;2.83;;;8.30;99.90;;;;;;5088393;28;20101;-49
2023/04/28 03:15:29;;;;;;;;;;;8.30;99.90;;;;;;5074338;28;20040;-48
2023/04/28 03:17:56;;;;;;;5.63;2.65;;;8.30;99.90;;;;;;5072887;28;19927;-47
2023/04/28 03:20:23;;;;;;;3.42;2.35;;;8.30;99.90;;;;;;5076009;28;20055;-48
2023/04/28 03:22:50;;;;;;;3.33;2.10;;;8.30;99.90;;;;;;5109482;28;20108;-47
2023/04/28 03:25:17;;;;;;;5.25;2.38;;;8.30;99.90;;;;;;5080034;28;20036;-47
2023/04/28 03:27:50;;;;;;;6.93;2.38;;;8.30;99.90;;;;;;5072840;28;20415;-48
2023/04/28 03:30:16;;;;;;;6.63;2.67;;;8.30;99.90;;;;;;5075023;28;20487;-47
2023/04/28 03:32:45;;;;;;;5.50;2.85;;;8.30;99.90;;;;;;5089395;28;20260;-46
2023/04/28 03:35:12;;;;;;;5.20;2.70;;;8.30;99.90;;;;;;5100994;28;20040;-46
2023/04/28 03:37:39;;;;;;;8.68;2.85;;;8.30;99.90;;;;;;5076942;28;20040;-46
2023/04/28 03:40:07;;;;;;;4.55;2.90;;;8.30;99.90;;;;;;5089512;28;20043;-46
2023/04/28 03:42:53;;;;;;;7.75;3.03;;;8.20;99.90;;;;;;5094721;28;20042;-47
2023/04/28 03:45:27;;;;;;;5.47;2.75;;;8.20;99.90;;;;;;5084470;28;20043;-47
2023/04/28 03:47:54;;;;;;;3.72;2.17;;;8.20;99.90;;;;;;5110853;28;20032;-47
2023/04/28 03:50:21;;;;;;;4.10;3.03;;;8.20;99.90;;;;;;5091749;28;20047;-46
2023/04/28 03:52:50;;;;;;;4.75;2.50;;;8.20;99.90;;;;;;5087488;28;20044;-48
2023/04/28 03:55:17;;;;;;;4.03;2.22;;;8.20;99.90;;;;;;5084800;28;20052;-46
2023/04/28 03:57:44;;;;;;;8.20;3.40;;;8.20;99.90;;;;;;5089707;28;20040;-47
2023/04/28 04:00:11;;;;;;;3.60;2.83;;;8.20;99.90;;;;;;5074063;28;20095;-46
2023/04/28 04:02:41;;;;;;;5.47;2.85;;;8.10;99.90;;;;;;5111091;28;20050;-46
2023/04/28 04:05:08;;;;;;;;;;;8.10;99.90;;;;;;5081616;28;20659;-46
2023/04/28 04:07:35;;;;;;;3.67;2.67;;;8.10;99.90;;;;;;5105245;28;20356;-47
2023/04/28 04:10:02;;;;;;;5.88;2.70;;;8.10;99.90;;;;;;5092266;28;20126;-47
2023/04/28 04:12:32;;;;;;;9.35;4.93;;;8.10;99.90;;;;;;5093531;28;20043;-46
2023/04/28 04:14:59;;;;;;;8.32;4.38;;;8.10;99.90;;;;;;5083836;28;20075;-47
2023/04/28 04:17:26;;;;;;;6.93;3.15;;;8.10;99.90;;;;;;5098877;22;20079;-47
2023/04/28 04:19:53;;;;;;;6.13;3.45;;;8.20;99.90;;;;;;5054938;28;20779;-47
2023/04/28 04:22:20;;;;;;;4.20;2.70;;;8.20;99.90;;;;;;5068101;28;20513;-47
2023/04/28 04:24:46;;;;;;;5.55;3.22;;;8.20;99.90;;;;;;5070866;28;20305;-47
2023/04/28 04:27:13;;;;;;;5.10;2.90;;;8.20;99.90;;;;;;5075769;28;20069;-47
2023/04/28 04:29:41;;;;;;;8.20;2.90;;;8.30;99.90;;;;;;5085580;28;20298;-47
2023/04/28 04:32:11;;;;;;;7.13;2.70;;;8.30;99.90;;;;;;5073204;28;20051;-47
2023/04/28 04:34:39;;;;;;;8.27;3.20;;;8.20;99.90;;;;;;5071210;28;20063;-47
2023/04/28 04:37:06;;;;;;;5.50;3.10;;;8.20;99.90;;;;;;5074801;28;20047;-47
2023/04/28 04:39:37;;;;;;;5.35;2.90;;;8.30;99.90;;;;;;5093317;28;20052;-47
2023/04/28 04:42:04;;;;;;;4.97;2.90;;;8.20;99.90;;;;;;5077024;28;20047;-48
2023/04/28 04:45:11;;;;;;;6.40;3.20;;;8.20;99.90;;;;;;5076675;28;20131;-47
2023/04/28 04:47:39;;;;;;;4.43;3.38;;;8.20;99.90;;;;;;5074348;28;20055;-47
2023/04/28 04:50:07;;;;;;;5.03;2.80;;;8.20;99.90;;;;;;5086035;28;20052;-48
2023/04/28 04:52:33;;;;;;;6.53;2.92;;;8.30;99.90;;;;;;5076471;28;20048;-47
2023/04/28 04:55:01;;;;;;;;;;;8.20;99.90;;;;;;5076490;28;20189;-48
2023/04/28 04:57:28;;;;;;;5.53;3.20;;;8.20;99.90;;;;;;5075572;28;19928;-47
2023/04/28 05:00:08;;;;;;;7.55;3.88;;;8.20;99.90;;;;;;5068331;28;20508;-47
2023/04/28 05:02:36;;;;;;;10.15;3.88;;;8.30;99.90;;;;;;5057574;28;20045;-48
2023/04/28 05:05:05;;;;;;;4.28;3.25;;;8.30;99.90;;;;;;5054204;28;20045;-47
2023/04/28 05:07:50;;;;;;;5.32;3.10;;;8.30;99.90;;;;;;5056336;28;20071;-47
2023/04/28 05:10:17;;;;;;;5.05;2.42;;;8.40;99.90;;;;;;5058808;28;20044;-47
2023/04/28 05:12:44;;;;;;;;;;;8.40;99.90;;;;;;5056549;28;20378;-47
2023/04/28 05:15:16;;;;;;;10.77;3.15;;;8.40;99.90;;;;;;5070092;28;19923;-47
2023/04/28 05:17:54;;;;;;;5.53;2.88;;;8.40;99.90;;;;;;5084068;28;20070;-48
2023/04/28 05:20:22;;;;;;;5.55;2.47;;;8.50;99.90;;;;;;5069176;28;20040;-47
2023/04/28 05:22:49;;;;;;;8.50;2.80;;;8.50;99.90;;;;;;5066767;28;20045;-46
2023/04/28 05:25:16;;;;;;;7.68;2.90;;;8.50;99.90;;;;;;5061870;28;20401;-47
2023/04/28 05:27:43;;;;;;;9.10;2.97;;;8.50;99.90;;;;;;5067696;28;20075;-47
2023/04/28 05:30:10;;;;;;;4.40;2.50;;;8.60;99.90;;;;;;5069258;28;20103;-48
2023/04/28 05:32:37;;;;;;;4.50;2.70;;;8.60;99.90;;;;;;5096395;28;20557;-47
2023/04/28 05:35:05;;;;;;;7.53;3.22;;;8.50;99.90;;;;;;5094545;28;20043;-47
2023/04/28 05:37:32;;;;;;;4.82;2.53;;;8.50;99.90;;;;;;5085757;28;20519;-47
2023/04/28 05:39:59;;;;;;;5.03;2.78;;;8.40;99.90;;;;;;5073814;28;20040;-46
2023/04/28 05:42:26;;;;;;;5.75;2.67;;;8.40;99.90;;;;;;5095732;28;20079;-49
2023/04/28 05:44:53;;;;;;;9.00;3.45;;;8.40;99.90;;;;;;5088371;28;20040;-46
2023/04/28 05:47:20;;;;;;;5.78;3.10;;;8.40;99.90;;;;;;5095738;28;20035;-46
2023/04/28 05:49:47;;;;;;;6.95;3.35;;;8.50;99.90;;;;;;5094393;28;20070;-47
2023/04/28 05:52:14;;;;;;;7.57;3.10;;;8.60;99.90;;;;;;5095057;28;20581;-48
2023/04/28 05:54:40;;;;;;;6.60;3.50;;;8.70;99.90;;;;;;5090491;28;20060;-48
2023/04/28 05:57:07;;;;;;;5.43;3.45;;;8.80;99.90;;;;;;5074169;28;20093;-48
2023/04/28 05:59:34;;;;;;;7.97;4.10;;;8.80;99.90;;;;;;5075095;28;20047;-48
2023/04/28 06:02:01;;;;;;;9.80;3.53;;;9.60;99.90;;;;;;5074557;28;20500;-48
2023/04/28 06:04:28;;;;;;;5.68;3.15;;;9.00;99.90;;;;;;5087348;28;20407;-48
2023/04/28 06:06:56;;;;;;;5.88;2.78;;;9.00;99.90;;;;;;5077757;28;20256;-48
2023/04/28 06:09:23;;;;;;;8.52;3.22;;;9.10;99.90;;;;;;5091958;28;20044;-48
2023/04/28 06:11:51;;;;;;;7.72;2.80;;;9.20;99.90;;;;;;5086328;28;20054;-48
2023/04/28 06:14:18;;;;;;;6.32;2.75;;;9.20;99.90;;;;;;5055357;28;20561;-50
2023/04/28 06:16:46;;;;;;;10.95;3.00;;;9.20;99.90;;;;;;5056120;28;20040;-48
2023/04/28 06:19:14;;;;;;;9.07;3.25;;;9.30;99.90;;;;;;5077942;28;20062;-48
2023/04/28 06:21:41;;;;;;;6.15;2.75;;;9.30;99.90;;;;;;5103005;28;20534;-48
2023/04/28 06:24:07;;;;;;;13.80;3.17;;;9.30;99.90;;;;;;5073525;28;20044;-47
2023/04/28 06:26:35;;;;;;;2.83;2.33;;;9.40;99.90;;;;;;5077458;28;20093;-48
2023/04/28 06:29:02;;;;;;;5.97;3.00;;;9.40;99.90;;;;;;5109002;28;20096;-48
2023/04/28 06:31:29;;;;;;;7.40;3.35;;;9.50;99.90;;;;;;5092900;28;20491;-48
2023/04/28 06:33:56;;;;;;;5.65;4.05;;;9.60;99.90;;;;;;5111845;28;20343;-51
2023/04/28 06:36:23;;;;;;;8.65;5.00;;;9.70;99.90;;;;;;5066252;28;20054;-48
2023/04/28 06:38:50;;;;;;;6.35;3.92;;;9.90;99.90;;;;;;5053149;28;20094;-48
2023/04/28 06:41:16;;;;;;;7.93;3.92;;;10.00;99.90;;;;;;5054630;28;20102;-47
2023/04/28 06:43:47;;;;;;;10.05;4.00;;;10.10;99.90;;;;;;5060968;28;20132;-47
2023/04/28 06:46:20;;;;;;;5.75;3.45;;;10.20;99.90;;;;;;5066591;28;20076;-48
2023/04/28 06:48:47;;;;;;;8.20;3.78;;;10.30;99.90;;;;;;5098536;28;20043;-48
2023/04/28 06:51:15;;;;;;;6.68;3.90;;;10.40;99.90;;;;;;5112944;28;20695;-47
2023/04/28 06:53:42;;;;;;;6.40;4.20;;;10.40;99.90;;;;;;5093920;28;20504;-48
2023/04/28 06:56:09;;;;;;;11.35;3.80;;;10.50;99.90;;;;;;5079995;28;20036;-47
2023/04/28 06:58:37;;;;;;;10.32;3.70;;;10.60;99.90;;;;;;5112016;28;20039;-45
2023/04/28 07:01:04;;;;;;;5.38;2.80;;;10.60;99.90;;;;;;5111501;28;20549;-47
2023/04/28 07:03:31;;;;;;;5.93;2.47;;;10.70;99.90;;;;;;5107871;28;20036;-48
2023/04/28 07:05:58;;;;;;;5.10;2.10;;;10.80;99.90;;;;;;5100400;28;20040;-48
2023/04/28 07:08:25;;;;;;;3.03;2.55;;;10.90;99.90;;;;;;5112077;28;20058;-48
2023/04/28 07:10:52;;;;;;;7.40;2.60;;;10.90;99.90;;;;;;5112109;28;20545;-47
2023/04/28 07:13:19;;;;;;;3.38;2.50;;;10.80;99.90;;;;;;5108102;28;20093;-47
2023/04/28 07:15:45;;;;;;;3.83;2.33;;;10.80;99.90;;;;;;5108051;28;20138;-50
2023/04/28 07:18:12;;;;;;;5.57;2.95;;;10.60;99.90;;;;;;5111884;28;20411;-47
2023/04/28 07:20:39;;;;;;;4.80;2.60;;;10.60;99.90;;;;;;5112336;28;20051;-48
2023/04/28 07:23:06;;;;;;;5.07;2.40;;;10.70;99.90;;;;;;5102859;28;20040;-47
2023/04/28 07:25:34;;;;;;;9.48;3.55;;;10.70;99.90;;;;;;5112425;28;20530;-47
2023/04/28 07:28:02;;;;;;;4.47;2.70;;;10.70;99.90;;;;;;5111702;28;20391;-48
2023/04/28 07:30:29;;;;;;;4.53;3.20;;;10.50;99.90;;;;;;5103620;28;20434;-47
2023/04/28 07:32:56;;;;;;;6.20;3.03;;;10.50;99.90;;;;;;5099290;28;20046;-49
2023/04/28 07:35:23;;;;;;;6.05;3.08;;;10.40;99.90;;;;;;5099536;28;20040;-47
2023/04/28 07:37:50;;;;;;;7.68;3.75;;;10.30;99.90;;;;;;5091524;28;20069;-47
2023/04/28 07:40:17;;;;;;;5.65;3.42;;;10.20;99.90;;;;;;5093096;28;20044;-47
2023/04/28 07:42:44;;;;;;;8.68;3.78;;;10.20;99.90;;;;;;5111705;28;20092;-47
2023/04/28 07:45:11;;;;;;;8.07;3.97;;;10.20;99.90;;;;;;5092094;28;20044;-47
2023/04/28 07:47:38;;;;;;;8.80;5.00;;;10.20;99.90;;;;;;5092177;28;20051;-47
2023/04/28 07:50:06;;;;;;;13.20;7.15;;;10.30;99.90;;;;;;5099729;28;20040;-50
2023/04/28 07:52:33;;;;;;;11.27;5.32;;;10.40;99.90;;;;;;5106183;28;20085;-48
2023/04/28 07:55:01;;;;;;;9.45;4.55;;;10.50;99.90;;;;;;5093459;28;20086;-47
2023/04/28 07:57:28;;;;;;;25.50;10.23;;;10.70;99.90;;;;;;5105292;28;20094;-48
2023/04/28 07:59:55;;;;;;;14.77;6.30;;;10.90;99.90;;;;;;5106099;28;20048;-47
2023/04/28 08:02:22;;;;;;;8.10;5.10;;;11.00;99.90;;;;;;5109224;28;20048;-47
2023/04/28 08:04:49;;;;;;;6.35;3.38;;;11.00;99.90;;;;;;5110962;28;20551;-47
2023/04/28 08:07:16;;;;;;;6.20;4.03;;;11.00;99.90;;;;;;5111173;28;20101;-47
2023/04/28 08:09:46;;;;;;;6.90;3.70;;;11.10;99.90;;;;;;5108953;28;20043;-47
2023/04/28 08:12:13;;;;;;;7.00;3.72;;;11.10;99.90;;;;;;5110927;28;20074;-48
2023/04/28 08:14:40;;;;;;;9.98;3.90;;;11.20;99.90;;;;;;5108441;28;20109;-47
2023/04/28 08:17:07;;;;;;;5.53;3.30;;;11.30;99.90;;;;;;5111224;28;20031;-47
2023/04/28 08:19:34;;;;;;;4.72;3.10;;;11.40;99.90;;;;;;5110536;28;20064;-47
2023/04/28 08:22:04;;;;;;;3.60;2.45;;;11.50;99.90;;;;;;5111631;28;20092;-47
2023/04/28 08:24:33;;;;;;;7.47;3.25;;;11.50;99.90;;;;;;5109426;28;20130;-48
2023/04/28 08:27:02;;;;;;;4.78;2.75;;;11.50;99.90;;;;;;5111471;28;20058;-50
2023/04/28 08:29:32;;;;;;;7.53;3.33;;;11.40;99.90;;;;;;5089886;28;20039;-47
2023/04/28 08:32:00;;;;;;;3.60;2.45;;;11.30;99.90;;;;;;5111914;28;20093;-48
2023/04/28 08:34:26;;;;;;;5.63;3.08;;;11.20;99.90;;;;;;5110691;28;20096;-47
2023/04/28 08:36:53;;;;;;;6.57;2.90;;;11.10;99.90;;;;;;5111265;28;20027;-48
2023/04/28 08:39:22;;;;;;;5.30;3.03;;;11.10;99.90;;;;;;5108888;28;20519;-47
2023/04/28 08:41:49;;;;;;;6.72;3.20;;;11.10;99.90;;;;;;5111176;28;20048;-48
2023/04/28 08:44:16;;;;;;;4.57;3.17;;;11.00;99.90;;;;;;5107482;28;20040;-48
2023/04/28 08:46:45;;;;;;;4.93;3.08;;;11.00;99.90;;;;;;5111449;28;20040;-48
2023/04/28 08:49:16;;;;;;;7.40;3.17;;;11.10;99.90;;;;;;5110147;28;20122;-48
2023/04/28 08:51:58;;;;;;;8.02;4.60;;;11.00;99.90;;;;;;5107552;28;20127;-47
2023/04/28 08:54:30;;;;;;;6.80;2.85;;;11.00;99.90;;;;;;5096819;28;20155;-47
2023/04/28 08:56:59;;;;;;;6.65;3.20;;;10.90;99.90;;;;;;5111005;28;20110;-48
2023/04/28 08:59:25;;;;;;;;;;;10.90;99.90;;;;;;5105334;28;20071;-47
2023/04/28 09:01:52;;;;;;;5.93;2.97;;;10.90;99.90;;;;;;5101817;28;19969;-47
2023/04/28 09:04:19;;;;;;;6.63;3.42;;;10.90;99.90;;;;;;5107740;28;20039;-48
2023/04/28 09:06:47;;;;;;;5.63;3.00;;;10.90;99.90;;;;;;5109412;28;20039;-48
2023/04/28 09:09:18;;;;;;;4.15;2.83;;;10.90;99.90;;;;;;5101448;28;20119;-47
2023/04/28 09:11:59;;;;;;;6.00;3.17;;;10.90;99.90;;;;;;5109118;28;20035;-48
2023/04/28 09:14:28;;;;;;;4.32;2.53;;;10.90;99.90;;;;;;5105225;28;20048;-48
2023/04/28 09:16:55;;;;;;;7.03;2.80;;;11.00;99.90;;;;;;5107466;28;20031;-48
2023/04/28 09:19:22;;;;;;;;;;;11.00;99.90;;;;;;5110179;28;20526;-47
2023/04/28 09:21:54;;;;;;;5.60;2.28;;;11.00;99.90;;;;;;5111498;28;19920;-48
2023/04/28 09:24:41;;;;;;;4.57;2.40;;;11.10;99.90;;;;;;5104672;28;20039;-48
2023/04/28 09:27:10;;;;;;;4.18;2.33;;;11.00;99.90;;;;;;5114525;28;20047;-47
2023/04/28 09:29:38;;;;;;;3.45;2.33;;;11.10;99.90;;;;;;5106701;28;20047;-49
2023/04/28 09:32:21;;;;;;;4.50;2.10;;;11.10;99.90;;;;;;5113122;28;20416;-48
2023/04/28 09:34:55;;;;;;;3.90;2.72;;;11.00;99.90;;;;;;5113649;28;20424;-47
2023/04/28 09:37:24;;;;;;;19.02;8.23;;;11.00;99.90;;;;;;5096226;28;20131;-47
2023/04/28 09:39:53;;;;;;;4.28;3.45;;;10.90;99.90;;;;;;5103479;28;20071;-48
2023/04/28 09:42:42;;;;;;;7.70;3.65;;;10.90;99.90;;;;;;5114367;28;20047;-48
2023/04/28 09:45:10;;;;;;;5.32;2.80;;;10.90;99.90;;;;;;5114283;28;20396;-47
2023/04/28 09:47:42;;;;;;;3.10;2.30;;;10.90;99.90;;;;;;5106847;28;20122;-48
2023/04/28 09:50:13;;;;;;;6.30;3.83;;;10.90;99.90;;;;;;5113716;28;20036;-47
2023/04/28 09:52:41;;;;;;;4.80;2.85;;;10.80;99.90;;;;;;5113808;28;20039;-47
2023/04/28 09:55:08;;;;;;;4.93;2.53;;;10.80;99.90;;;;;;5114386;28;20067;-47
2023/04/28 09:57:35;;;;;;;5.13;3.05;;;10.80;99.90;;;;;;5111877;28;20093;-47
2023/04/28 10:00:05;;;;;;;;;;;10.80;99.90;;;;;;5113955;28;20067;-46
2023/04/28 10:02:34;;;;;;;4.97;2.10;;;10.80;99.90;;;;;;5113629;28;19919;-47
2023/04/28 10:05:07;;;;;;;4.47;2.40;;;10.80;99.90;;;;;;5111657;28;20100;-50
2023/04/28 10:07:35;;;;;;;2.33;2.00;;;10.80;99.90;;;;;;5114133;28;20431;-47
2023/04/28 10:10:03;;;;;;;3.17;2.15;;;10.70;99.90;;;;;;5113772;28;20044;-47
2023/04/28 10:12:31;;;;;;;2.92;2.10;;;10.60;99.90;;;;;;5113893;28;20077;-48
2023/04/28 10:14:59;;;;;;;3.75;2.30;;;10.60;99.90;;;;;;5100353;28;20052;-48
2023/04/28 10:17:28;;;;;;;3.83;2.53;;;10.50;99.90;;;;;;5122691;22;20031;-47
2023/04/28 10:19:56;;;;;;;6.32;2.85;;;10.50;99.90;;;;;;5081311;28;20091;-47
2023/04/28 10:22:36;;;;;;;;;;;10.50;99.90;;;;;;5093597;28;20044;-47
2023/04/28 10:25:11;;;;;;;2.95;2.08;;;10.50;99.90;;;;;;5082618;28;19967;-47
2023/04/28 10:27:43;;;;;;;2.53;2.10;;;10.50;99.90;;;;;;5087391;28;20036;-51
2023/04/28 10:30:21;;;;;;;5.70;1.90;;;10.50;99.90;;;;;;5092280;28;20044;-48
2023/04/28 10:33:13;;;;;;;2.85;1.90;;;10.50;99.90;;;;;;5083156;28;20066;-47
2023/04/28 10:35:41;;;;;;;3.78;1.90;;;10.60;99.90;;;;;;5071569;28;20037;-47
2023/04/28 10:38:08;;;;;;;2.08;1.55;;;10.60;99.90;;;;;;5075434;28;20055;-51
2023/04/28 10:40:42;;;;;;;4.75;1.67;;;10.60;99.90;;;;;;5076420;28;20071;-47
2023/04/28 10:43:14;;;;;;;4.60;2.30;;;10.60;99.90;;;;;;5072618;28;20040;-47
2023/04/28 10:45:52;;;;;;;3.50;2.08;;;10.70;99.90;;;;;;5071548;28;20048;-49
2023/04/28 10:48:45;;;;;;;5.38;2.05;;;10.70;99.90;;;;;;5079323;28;20059;-50
2023/04/28 10:51:15;;;;;;;3.35;1.70;;;10.70;99.90;;;;;;5072060;28;20036;-47
2023/04/28 10:53:44;;;;;;;4.72;2.25;;;10.60;99.90;;;;;;5072710;28;20405;-47
2023/04/28 10:56:18;;;;;;;3.45;2.33;;;10.60;99.90;;;;;;5072150;28;20090;-47
2023/04/28 10:58:45;;;;;;;3.08;1.88;;;10.60;99.90;;;;;;5071068;28;20114;-47
2023/04/28 11:01:24;;;;;;;3.08;1.90;;;10.60;99.90;;;;;;5071521;28;20090;-47
2023/04/28 11:04:06;;;;;;;5.97;2.08;;;10.60;99.90;;;;;;5071971;28;20062;-49
2023/04/28 11:06:41;;;;;;;2.75;1.55;;;10.60;99.90;;;;;;5091923;28;20492;-48
2023/04/28 11:09:13;;;;;;;3.08;2.10;;;10.70;99.90;;;;;;5091672;28;20067;-47
2023/04/28 11:11:58;;;;;;;2.63;1.70;;;10.60;99.90;;;;;;5072311;28;20036;-47
2023/04/28 11:14:31;;;;;;;2.13;1.60;;;10.60;99.90;;;;;;5091282;28;20123;-47
2023/04/28 11:17:04;;;;;;;3.30;1.67;;;10.60;99.90;;;;;;5092281;28;20105;-47
2023/04/28 11:19:38;;;;;;;4.53;1.50;;;10.60;99.90;;;;;;5080680;28;20043;-47
2023/04/28 11:22:16;;;;;;;1.63;1.50;;;10.60;99.90;;;;;;5071901;28;20087;-47
2023/04/28 11:25:02;;;;;;;2.63;1.73;;;10.60;99.90;;;;;;5071586;28;20440;-49
2023/04/28 11:27:31;;;;;;;2.53;1.73;;;10.70;99.90;;;;;;5074247;28;20043;-49
2023/04/28 11:29:59;;;;;;;2.38;1.50;;;10.70;99.90;;;;;;5070838;28;20041;-47
2023/04/28 11:32:33;;;;;;;5.55;2.70;;;10.70;99.90;;;;;;5071574;28;20126;-47
2023/04/28 11:35:00;;;;;;;1.88;1.70;;;10.70;99.90;;;;;;5071836;28;20041;-50
2023/04/28 11:37:27;;;;;;;5.72;2.08;;;10.80;99.90;;;;;;5071243;28;20071;-48
2023/04/28 11:39:54;;;;;;;2.72;1.70;;;10.80;99.90;;;;;;5071002;28;20036;-47
2023/04/28 11:42:21;;;;;;;2.13;1.52;;;10.90;99.90;;;;;;5070971;28;20496;-47
2023/04/28 11:44:52;;;;;;;1.67;1.50;;;10.80;99.90;;;;;;5071028;28;20079;-47
2023/04/28 11:47:30;;;;;;;6.10;2.00;;;10.70;99.90;;;;;;5070864;28;20489;-47
2023/04/28 11:49:57;;;;;;;2.67;1.40;;;10.80;99.90;;;;;;5070447;28;20041;-49
2023/04/28 11:52:26;;;;;;;;;;;10.80;99.90;;;;;;5071818;28;20040;-47
2023/04/28 11:54:55;;;;;;;7.28;3.50;;;10.80;99.90;;;;;;5071161;28;19921;-47
2023/04/28 11:57:22;;;;;;;3.38;1.25;;;10.80;99.90;;;;;;5070773;28;20047;-47
2023/04/28 11:59:49;;;;;;;2.08;1.17;;;10.80;99.90;;;;;;5070599;28;20040;-47
2023/04/28 12:02:26;;;;;;;2.58;1.20;;;10.70;99.90;;;;;;5069922;28;20094;-46
2023/04/28 12:04:53;;;;;;;3.65;1.90;;;10.80;99.90;;;;;;5071210;28;20489;-47
2023/04/28 12:07:20;;;;;;;2.97;1.83;;;10.80;99.90;;;;;;5052266;28;20455;-47
2023/04/28 12:10:17;;;;;;;2.00;1.35;;;10.80;99.90;;;;;;5070227;28;20119;-48
2023/04/28 12:12:46;;;;;;;5.22;1.90;;;10.70;99.90;;;;;;5063338;28;20079;-48
2023/04/28 12:15:19;;;;;;;2.25;1.60;;;10.70;99.90;;;;;;5070292;28;20131;-47
2023/04/28 12:17:47;;;;;;;4.22;2.00;;;10.70;99.90;;;;;;5070207;28;20048;-47
2023/04/28 12:20:42;;;;;;;3.55;1.67;;;10.80;99.90;;;;;;5070089;28;20378;-49
2023/04/28 12:23:09;;;;;;;3.08;1.90;;;10.80;99.90;;;;;;5069006;28;20142;-47
2023/04/28 12:25:43;;;;;;;2.25;1.52;;;10.80;99.90;;;;;;5053424;28;20103;-50
2023/04/28 12:28:10;;;;;;;6.45;1.50;;;10.80;99.90;;;;;;5070412;28;20036;-48
2023/04/28 12:30:40;;;;;;;3.25;1.52;;;10.80;99.90;;;;;;5070109;28;20087;-49
2023/04/28 12:33:24;;;;;;;3.58;1.88;;;10.90;99.90;;;;;;5070198;28;20068;-48
2023/04/28 12:35:53;;;;;;;3.80;1.95;;;10.80;99.90;;;;;;5070877;28;20187;-49
2023/04/28 12:38:21;;;;;;;3.45;1.80;;;10.80;99.90;;;;;;5070377;28;20037;-47
2023/04/28 12:40:48;;;;;;;;;;;10.80;99.90;;;;;;5070897;28;20386;-47
2023/04/28 12:43:14;;;;;;;3.88;1.40;;;10.80;99.90;;;;;;5070877;28;19957;-48
2023/04/28 12:45:42;;;;;;;4.95;2.03;;;10.80;99.90;;;;;;5086882;28;20382;-48
2023/04/28 12:48:09;;;;;;;4.00;1.55;;;10.90;99.90;;;;;;5082457;28;20124;-47
2023/04/28 12:50:35;;;;;;;1.88;1.20;;;10.90;99.90;;;;;;5070037;28;20575;-47
2023/04/28 12:53:02;;;;;;;3.10;1.83;;;10.90;99.90;;;;;;5083871;28;20507;-47
2023/04/28 12:55:29;;;;;;;5.03;1.70;;;10.90;99.90;;;;;;5086265;28;20024;-47
2023/04/28 12:57:56;;;;;;;2.92;2.20;;;10.90;99.90;;;;;;5090785;28;20048;-47
2023/04/28 13:00:23;;;;;;;3.08;1.52;;;10.90;99.90;;;;;;5090225;28;20037;-46
2023/04/28 13:02:51;;;;;;;4.22;1.42;;;11.00;99.90;;;;;;5083382;28;20049;-48
2023/04/28 13:05:18;;;;;;;9.10;3.63;;;11.00;99.90;;;;;;5073290;28;20049;-47